Trine Charlotte — LMRY — position and weather

sailwx.info

Track history (hours):
 
Tides and Currents Weather Stations Pressure Air Temp Water Temp Dewpoint Dewpoint Depression Visibility Wind Speed Wind Dir Waves Ship Positions

Trine Charlotte

Last reported at 2016-Feb-09 13:19 UTC. Time now 2016-Feb-13 15:13 UTC.
Position N 69°19' E 018°01'.

Length 66 m; draft 5 m.

Type: Cargo ship. MMSI: 257233000.

Date/timePositionNaut miles runAvg speedWind from/ knotsBaromVisibWave heightAir tempDewpointWater temp
2016-Feb-09 13:19N 69°19' E 018°01'7 8.8
2016-Feb-09 12:33N 69°13' E 017°59'8 8.0
2016-Feb-09 11:33N 69°08' E 017°42'17 8.4
2016-Feb-09 09:28N 68°60' E 016°58'  
2016-Feb-06 02:04N 67°42' E 014°31'0 0.0
2016-Feb-06 01:19N 67°42' E 014°31'7 9.6
2016-Feb-06 00:33N 67°35' E 014°30'10 9.5
2016-Feb-05 23:33N 67°26' E 014°27'9 8.9
2016-Feb-05 22:33N 67°18' E 014°16'9 8.7
2016-Feb-05 21:33N 67°11' E 014°04'9 9.3
2016-Feb-05 20:33N 67°03' E 013°51'9 9.3
2016-Feb-05 19:33N 66°58' E 013°31'10 8.9
2016-Feb-05 18:27N 66°50' E 013°16'100 4.3
2016-Feb-04 19:23N 65°15' E 011°56'6 7.7
2016-Feb-04 18:32N 65°09' E 011°50'7 7.1
2016-Feb-04 17:34N 65°03' E 011°43'7 7.4
2016-Feb-04 16:34N 64°57' E 011°31'9 8.8
2016-Feb-04 15:34N 64°52' E 011°15'9 8.9
2016-Feb-04 14:34N 64°45' E 011°01'73 7.8
2016-Feb-04 05:17N 63°44' E 009°32'6 8.2
2016-Feb-04 04:34N 63°38' E 009°29'9 9.2
2016-Feb-04 03:33N 63°32' E 009°13'7 0.1
2016-Feb-02 01:26N 63°29' E 008°60'7 8.2
2016-Feb-02 00:33N 63°32' E 009°14'8 8.4
2016-Feb-01 23:33N 63°38' E 009°28'9 9.0
2016-Feb-01 22:33N 63°47' E 009°33'9 9.1
2016-Feb-01 21:33N 63°54' E 009°46'9 8.4
2016-Feb-01 20:32N 64°02' E 009°48'46 6.5
2016-Feb-01 13:24N 64°36' E 011°00'6 0.4
2016-Jan-31 22:13N 64°37' E 011°15'5 7.4
2016-Jan-31 21:33N 64°41' E 011°07'7 7.0
2016-Jan-31 20:33N 64°48' E 011°06'8 7.9
2016-Jan-31 19:33N 64°54' E 011°19'8 8.2
2016-Jan-31 18:33N 64°59' E 011°35'8 7.9
2016-Jan-31 17:33N 65°05' E 011°47'8 7.6
2016-Jan-31 16:33N 65°12' E 011°52'7 7.5
2016-Jan-31 15:33N 65°19' E 011°60'66 8.2
2016-Jan-31 07:33N 66°20' E 012°57'9 8.6
2016-Jan-31 06:32N 66°29' E 012°59'27 8.1
2016-Jan-31 03:08N 66°54' E 013°27'4 6.8
2016-Jan-31 02:33N 66°58' E 013°31'9 7.1
2016-Jan-31 01:18N 67°03' E 013°50'6 8.1
2016-Jan-31 00:33N 67°07' E 014°00'7 7.5
2016-Jan-30 23:33N 67°14' E 014°09'8 7.6
2016-Jan-30 22:33N 67°20' E 014°20'8 7.8
2016-Jan-30 21:34N 67°27' E 014°28'7 7.1
2016-Jan-30 20:33N 67°34' E 014°30'8 6.2
2016-Jan-30 19:15N 67°42' E 014°31'  
Track history (hours):
 
Tides and Currents Weather Stations Pressure Air Temp Water Temp Dewpoint Dewpoint Depression Visibility Wind Speed Wind Dir Waves Ship Positions

Trine Charlotte

Last reported at 2016-Feb-09 13:19 UTC. Time now 2016-Feb-13 15:13 UTC.
Position N 69°19' E 018°01'.

Length 66 m; draft 5 m.

Type: Cargo ship. MMSI: 257233000.

Date/timePositionNaut miles runAvg speedWind from/ knotsBaromVisibWave heightAir tempDewpointWater temp
2016-Feb-09 13:19N 69°19' E 018°01'7 8.8
2016-Feb-09 12:33N 69°13' E 017°59'8 8.0
2016-Feb-09 11:33N 69°08' E 017°42'17 8.4
2016-Feb-09 09:28N 68°60' E 016°58'  
2016-Feb-06 02:04N 67°42' E 014°31'0 0.0
2016-Feb-06 01:19N 67°42' E 014°31'7 9.6
2016-Feb-06 00:33N 67°35' E 014°30'10 9.5
2016-Feb-05 23:33N 67°26' E 014°27'9 8.9
2016-Feb-05 22:33N 67°18' E 014°16'9 8.7
2016-Feb-05 21:33N 67°11' E 014°04'9 9.3
2016-Feb-05 20:33N 67°03' E 013°51'9 9.3
2016-Feb-05 19:33N 66°58' E 013°31'10 8.9
2016-Feb-05 18:27N 66°50' E 013°16'100 4.3
2016-Feb-04 19:23N 65°15' E 011°56'6 7.7
2016-Feb-04 18:32N 65°09' E 011°50'7 7.1
2016-Feb-04 17:34N 65°03' E 011°43'7 7.4
2016-Feb-04 16:34N 64°57' E 011°31'9 8.8
2016-Feb-04 15:34N 64°52' E 011°15'9 8.9
2016-Feb-04 14:34N 64°45' E 011°01'73 7.8
2016-Feb-04 05:17N 63°44' E 009°32'6 8.2
2016-Feb-04 04:34N 63°38' E 009°29'9 9.2
2016-Feb-04 03:33N 63°32' E 009°13'7 0.1
2016-Feb-02 01:26N 63°29' E 008°60'7 8.2
2016-Feb-02 00:33N 63°32' E 009°14'8 8.4
2016-Feb-01 23:33N 63°38' E 009°28'9 9.0
2016-Feb-01 22:33N 63°47' E 009°33'9 9.1
2016-Feb-01 21:33N 63°54' E 009°46'9 8.4
2016-Feb-01 20:32N 64°02' E 009°48'46 6.5
2016-Feb-01 13:24N 64°36' E 011°00'6 0.4
2016-Jan-31 22:13N 64°37' E 011°15'5 7.4
2016-Jan-31 21:33N 64°41' E 011°07'7 7.0
2016-Jan-31 20:33N 64°48' E 011°06'8 7.9
2016-Jan-31 19:33N 64°54' E 011°19'8 8.2
2016-Jan-31 18:33N 64°59' E 011°35'8 7.9
2016-Jan-31 17:33N 65°05' E 011°47'8 7.6
2016-Jan-31 16:33N 65°12' E 011°52'7 7.5
2016-Jan-31 15:33N 65°19' E 011°60'66 8.2
2016-Jan-31 07:33N 66°20' E 012°57'9 8.6
2016-Jan-31 06:32N 66°29' E 012°59'27 8.1
2016-Jan-31 03:08N 66°54' E 013°27'4 6.8
2016-Jan-31 02:33N 66°58' E 013°31'9 7.1
2016-Jan-31 01:18N 67°03' E 013°50'6 8.1
2016-Jan-31 00:33N 67°07' E 014°00'7 7.5
2016-Jan-30 23:33N 67°14' E 014°09'8 7.6
2016-Jan-30 22:33N 67°20' E 014°20'8 7.8
2016-Jan-30 21:34N 67°27' E 014°28'7 7.1
2016-Jan-30 20:33N 67°34' E 014°30'8 6.2
2016-Jan-30 19:15N 67°42' E 014°31'  

Dump ship's entire track history